»·PEaware :: UAL211 KDEN-KLAX

UAL211 :: KDEN-KLAX

FLIGHT INFORMATION

Flight Status: Arrived
Operator:
United Airlines
More flights by this operator :: More flights under this callsign
Pilot: Jose A. (18565)
Aircraft: BOEING 777-200
(B772)
More flights by this aircraft type
Origin: KDEN Denver Intl
United States
Destination: KLAX Los Angeles Intl
United States
More flights between these airports :: More routes between these airports
Route: BAYLR4 TEHRU JASSE Q90 DNERO ANJLL4
File this flight plan on PilotEdge
Remarks:
Altitude:
(Current/Filed)
38,000ft
Speed:
(Current/Filed)
480kts
Departed: 18-Sep-19 08:17 AM
Arrived: 18-Sep-19 10:13 AM
Distance/Time
Traveled:
747nm/1:56
Distance/Time
To Go:
Arrived

Flight Plot

Page will automatically refresh every two minutes.

Flight plan parsing failed; only flown route is shown


Map Options




Map Legend


Flown Route
Filed Route
Departure Airport
Arrival Airport
Navaid (VOR, NDB)
Fix

Horizontal Profiles

Position Reports

Time Latitude Longitude Heading Altitude Ground
Speed
18-Sep-19 07:48 39.858032 -104.672847 0 5449ft 0kts
18-Sep-19 07:49 39.858032 -104.672847 0 5449ft 0kts
18-Sep-19 07:50 39.858032 -104.672847 0 5449ft 0kts
18-Sep-19 07:51 39.858032 -104.672847 0 5449ft 0kts
18-Sep-19 07:52 39.858032 -104.672847 0 5449ft 0kts
18-Sep-19 07:53 39.858032 -104.672847 0 5449ft 0kts
18-Sep-19 07:54 39.858032 -104.672847 0 5449ft 0kts
18-Sep-19 07:55 39.858032 -104.672847 0 5449ft 0kts
18-Sep-19 07:56 39.858032 -104.672847 0 5449ft 0kts
18-Sep-19 07:57 39.858032 -104.672847 0 5449ft 0kts
18-Sep-19 07:58 39.858032 -104.672847 0 5449ft 0kts
18-Sep-19 07:59 39.857915 -104.672847 0 5449ft 2kts
18-Sep-19 08:00 39.857359 -104.672825 338 5449ft 2kts
18-Sep-19 08:01 39.857322 -104.672381 253 5449ft 2kts
18-Sep-19 08:02 39.857369 -104.672041 270 5449ft 0kts
18-Sep-19 08:03 39.857369 -104.672043 270 5449ft 0kts
18-Sep-19 08:04 39.857380 -104.673087 270 5449ft 7kts
18-Sep-19 08:05 39.857402 -104.676222 270 5449ft 12kts
18-Sep-19 08:06 39.857178 -104.679354 217 5449ft 4kts
18-Sep-19 08:07 39.856752 -104.681026 273 5449ft 5kts
18-Sep-19 08:08 39.856898 -104.683369 258 5449ft 5kts
18-Sep-19 08:09 39.855835 -104.684000 179 5449ft 4kts
18-Sep-19 08:09 39.853673 -104.684032 180 5449ft 12kts
18-Sep-19 08:11 39.851373 -104.684070 181 5449ft 7kts
18-Sep-19 08:12 39.847160 -104.684099 180 5449ft 16kts
18-Sep-19 08:12 39.844620 -104.684096 182 5449ft 9kts
18-Sep-19 08:14 39.842025 -104.684181 181 5449ft 0kts
18-Sep-19 08:14 39.841987 -104.684181 180 5449ft 2kts
18-Sep-19 08:15 39.840663 -104.685800 269 5449ft 25kts
18-Sep-19 08:16 39.841335 -104.731834 269 6069ft 184kts
18-Sep-19 08:17 39.826443 -104.808180 247 7087ft 270kts
18-Sep-19 08:18 39.799857 -104.904761 249 9375ft 292kts
18-Sep-19 08:19 39.770448 -105.014076 246 10896ft 353kts
18-Sep-19 08:20 39.729631 -105.129470 243 14063ft 354kts
18-Sep-19 08:21 39.687222 -105.247975 242 16950ft 369kts
18-Sep-19 08:22 39.643106 -105.370760 242 19580ft 382kts
18-Sep-19 08:23 39.597360 -105.497534 242 22014ft 394kts
18-Sep-19 08:24 39.550451 -105.627664 245 24228ft 405kts
18-Sep-19 08:25 39.511604 -105.766415 248 26321ft 413kts
18-Sep-19 08:26 39.472751 -105.907605 248 28235ft 421kts
18-Sep-19 08:27 39.434044 -106.046046 248 29942ft 427kts
18-Sep-19 08:28 39.393065 -106.191793 247 31534ft 435kts
18-Sep-19 08:29 39.351097 -106.340092 247 33074ft 443kts
18-Sep-19 08:30 39.308794 -106.488847 247 34987ft 439kts
18-Sep-19 08:31 39.268109 -106.631076 247 36541ft 438kts
18-Sep-19 08:32 39.213980 -106.770956 235 37917ft 437kts
18-Sep-19 08:33 39.141246 -106.897037 232 38315ft 437kts
18-Sep-19 08:34 39.068160 -107.022034 233 38339ft 436kts
18-Sep-19 08:35 38.995392 -107.147040 233 38360ft 436kts
18-Sep-19 08:36 38.922588 -107.271612 233 38367ft 436kts
18-Sep-19 08:37 38.849560 -107.396048 233 38360ft 437kts
18-Sep-19 08:38 38.776253 -107.520494 233 38327ft 436kts
18-Sep-19 08:39 38.702896 -107.644593 232 38280ft 436kts
18-Sep-19 08:40 38.629476 -107.768287 232 38258ft 437kts
18-Sep-19 08:41 38.555788 -107.891983 232 38244ft 437kts
18-Sep-19 08:42 38.482029 -108.015325 232 38243ft 437kts
18-Sep-19 08:43 38.408180 -108.138355 232 38261ft 437kts
18-Sep-19 08:44 38.334028 -108.261421 232 38283ft 437kts
18-Sep-19 08:45 38.259921 -108.383950 232 38288ft 437kts
18-Sep-19 08:46 38.185634 -108.506328 232 38284ft 437kts
18-Sep-19 08:47 38.111045 -108.628741 232 38286ft 437kts
18-Sep-19 08:48 38.036560 -108.750520 232 38284ft 437kts
18-Sep-19 08:49 37.961935 -108.872112 232 38285ft 437kts
18-Sep-19 08:50 37.887112 -108.993513 232 38294ft 437kts
18-Sep-19 08:51 37.812387 -109.114311 232 38307ft 437kts
18-Sep-19 08:52 37.737238 -109.235415 232 38325ft 437kts
18-Sep-19 08:53 37.662107 -109.356008 232 38343ft 437kts
18-Sep-19 08:54 37.587042 -109.476046 232 38351ft 437kts
18-Sep-19 08:55 37.511575 -109.596287 232 38347ft 436kts
18-Sep-19 08:56 37.436377 -109.715650 231 38338ft 436kts
18-Sep-19 08:57 37.360809 -109.835208 231 38326ft 436kts
18-Sep-19 08:58 37.285267 -109.954276 231 38308ft 436kts
18-Sep-19 08:59 37.209471 -110.073312 231 38296ft 436kts
18-Sep-19 09:00 37.133607 -110.192035 231 38277ft 436kts
18-Sep-19 09:01 37.057530 -110.310706 231 38259ft 436kts
18-Sep-19 09:02 36.981251 -110.429220 231 38238ft 436kts
18-Sep-19 09:03 36.905196 -110.546949 231 38221ft 436kts
18-Sep-19 09:04 36.828974 -110.664545 231 38216ft 436kts
18-Sep-19 09:05 36.752484 -110.782148 231 38195ft 436kts
18-Sep-19 09:06 36.675826 -110.899638 231 38186ft 436kts
18-Sep-19 09:07 36.599117 -111.016712 231 38180ft 436kts
18-Sep-19 09:08 36.522376 -111.133506 231 38172ft 437kts
18-Sep-19 09:09 36.445394 -111.250260 231 38177ft 437kts
18-Sep-19 09:10 36.368145 -111.366977 231 38191ft 436kts
18-Sep-19 09:11 36.291026 -111.483120 231 38209ft 436kts
18-Sep-19 09:12 36.213755 -111.599051 231 38227ft 437kts
18-Sep-19 09:13 36.136312 -111.714864 231 38260ft 437kts
18-Sep-19 09:14 36.065172 -111.835894 242 38283ft 436kts
18-Sep-19 09:15 36.018330 -111.974548 247 38291ft 436kts
18-Sep-19 09:16 35.974233 -112.114305 247 38291ft 436kts
18-Sep-19 09:17 35.929523 -112.253312 247 38292ft 436kts
18-Sep-19 09:18 35.884549 -112.392261 247 38293ft 436kts
18-Sep-19 09:19 35.839361 -112.531163 247 38286ft 436kts
18-Sep-19 09:20 35.794122 -112.669586 247 38278ft 436kts
18-Sep-19 09:21 35.748527 -112.808508 247 38268ft 437kts
18-Sep-19 09:22 35.702866 -112.946984 247 38253ft 437kts
18-Sep-19 09:23 35.656799 -113.085976 247 38223ft 437kts
18-Sep-19 09:24 35.610874 -113.223954 246 38200ft 437kts
18-Sep-19 09:25 35.564436 -113.362758 247 38173ft 438kts
18-Sep-19 09:26 35.518015 -113.500865 246 38138ft 438kts
18-Sep-19 09:27 35.471449 -113.638821 246 38118ft 438kts
18-Sep-19 09:28 35.424688 -113.776737 246 38095ft 438kts
18-Sep-19 09:29 35.377739 -113.914586 246 38094ft 438kts
18-Sep-19 09:30 35.330682 -114.052199 246 38082ft 438kts
18-Sep-19 09:31 35.283479 -114.189521 246 38060ft 438kts
18-Sep-19 09:32 35.236079 -114.326756 246 38013ft 437kts
18-Sep-19 09:33 35.188551 -114.463890 246 37967ft 437kts
18-Sep-19 09:34 35.140877 -114.600813 246 37955ft 438kts
18-Sep-19 09:35 35.093225 -114.737802 246 37956ft 438kts
18-Sep-19 09:36 35.045479 -114.874803 246 37960ft 438kts
18-Sep-19 09:37 34.991231 -115.007657 241 37967ft 438kts
18-Sep-19 09:38 34.933664 -115.138776 241 37970ft 438kts
18-Sep-19 09:39 34.876484 -115.269773 241 37978ft 439kts
18-Sep-19 09:40 34.819022 -115.401209 241 37994ft 439kts
18-Sep-19 09:41 34.765120 -115.534288 245 38005ft 439kts
18-Sep-19 09:42 34.715630 -115.670476 245 38026ft 440kts
18-Sep-19 09:43 34.665611 -115.806197 245 38038ft 440kts
18-Sep-19 09:44 34.615432 -115.941633 245 38051ft 441kts
18-Sep-19 09:45 34.565145 -116.077980 245 37854ft 449kts
18-Sep-19 09:46 34.512740 -116.219354 245 36629ft 460kts
18-Sep-19 09:47 34.460861 -116.358783 244 35199ft 447kts
18-Sep-19 09:48 34.410513 -116.492455 243 33019ft 429kts
18-Sep-19 09:49 34.359329 -116.616766 243 31337ft 408kts
18-Sep-19 09:50 34.310493 -116.735807 244 28678ft 383kts
18-Sep-19 09:51 34.265092 -116.848915 244 26357ft 374kts
18-Sep-19 09:52 34.220170 -116.960203 244 24040ft 364kts
18-Sep-19 09:53 34.186051 -117.073907 252 21951ft 355kts
18-Sep-19 09:54 34.156049 -117.185961 251 19723ft 347kts
18-Sep-19 09:55 34.125886 -117.295311 251 17566ft 339kts
18-Sep-19 09:56 34.098819 -117.394981 252 15580ft 329kts
18-Sep-19 09:57 34.075323 -117.489690 252 13735ft 313kts
18-Sep-19 09:58 34.042587 -117.583376 246 11936ft 281kts
18-Sep-19 09:59 34.012385 -117.667348 247 10407ft 271kts
18-Sep-19 10:00 34.000653 -117.745585 264 9516ft 261kts
18-Sep-19 10:01 33.993080 -117.823798 263 8610ft 242kts
18-Sep-19 10:02 34.018727 -117.893896 290 7587ft 242kts
18-Sep-19 10:03 33.998688 -117.962568 224 6517ft 219kts
18-Sep-19 10:04 33.973752 -118.020884 279 5780ft 215kts
18-Sep-19 10:05 33.967106 -118.091383 263 4772ft 198kts
18-Sep-19 10:07 33.960865 -118.152903 262 3820ft 180kts
18-Sep-19 10:08 33.954725 -118.212976 263 2876ft 174kts
18-Sep-19 10:09 33.949390 -118.265134 263 2046ft 152kts
18-Sep-19 10:10 33.944184 -118.316034 262 1244ft 152kts
18-Sep-19 10:11 33.939539 -118.361250 261 457ft 122kts
18-Sep-19 10:12 33.935804 -118.399918 255 144ft 46kts
18-Sep-19 10:13 33.936137 -118.405367 263 144ft 12kts
18-Sep-19 10:14 33.936968 -118.409105 350 144ft 7kts
18-Sep-19 10:15 33.938736 -118.408278 83 144ft 7kts
18-Sep-19 10:16 33.939009 -118.405734 84 144ft 7kts
18-Sep-19 10:17 33.939248 -118.403298 83 144ft 7kts
18-Sep-19 10:18 33.939493 -118.400948 83 144ft 7kts
18-Sep-19 10:19 33.939794 -118.399312 37 144ft 3kts

Navigation Log

Ident Type
Flight plan parsing failed, navigation log unavailable